Time;durP1;ratioP1;P1;durP2;ratioP2;P2;SDS_P1;SDS_P2;PMS_P1;PMS_P2;Temp;Humidity;BMP_temperature;BMP_pressure;BME280_temperature;BME280_humidity;BME280_pressure;Samples;Min_cycle;Max_cycle;Signal;HPM_P1;HPM_P2
2022/12/08 06:10:29;;;;;;;44.98;20.37;;;;;;;-1.38;100.00;99697.38;1799426;79;22954;-65
2022/12/08 06:12:56;;;;;;;35.05;18.77;;;;;;;-1.28;100.00;99705.06;1753258;81;21157;-66
2022/12/08 06:15:23;;;;;;;31.45;17.90;;;;;;;-1.09;100.00;99712.34;1750337;82;21084;-65
2022/12/08 06:17:51;;;;;;;28.60;17.27;;;;;;;-0.93;100.00;99720.56;1750951;82;21066;-66
2022/12/08 06:20:18;;;;;;;27.48;16.48;;;;;;;-0.80;100.00;99708.59;1751014;82;21074;-66
2022/12/08 06:22:45;;;;;;;30.37;19.40;;;;;;;-0.70;100.00;99718.39;1751392;82;21113;-66
2022/12/08 06:25:12;;;;;;;23.15;15.40;;;;;;;-0.59;100.00;99727.18;1751338;82;21046;-66
2022/12/08 06:27:39;;;;;;;20.50;13.08;;;;;;;-0.46;100.00;99733.91;1751104;81;21561;-66
2022/12/08 06:30:07;;;;;;;19.55;13.62;;;;;;;-0.32;100.00;99732.12;1751509;82;21078;-66
2022/12/08 06:32:35;;;;;;;19.05;13.22;;;;;;;-0.22;100.00;99738.73;1751946;82;21106;-66
2022/12/08 06:35:03;;;;;;;20.27;13.38;;;;;;;-0.10;100.00;99736.27;1751521;82;21110;-66
2022/12/08 06:37:31;;;;;;;17.10;11.60;;;;;;;-0.05;100.00;99741.84;1722140;82;21094;-65
2022/12/08 06:39:57;;;;;;;17.95;12.45;;;;;;;-0.07;100.00;99750.06;1752696;82;21628;-66
2022/12/08 06:42:43;;;;;;;17.05;12.00;;;;;;;-0.06;100.00;99750.89;1752845;82;21035;-65
2022/12/08 06:45:12;;;;;;;19.92;12.28;;;;;;;-0.04;100.00;99750.20;1753030;82;21007;-66
2022/12/08 06:47:39;;;;;;;18.62;12.33;;;;;;;-0.12;100.00;99743.69;1752776;82;21019;-65
2022/12/08 06:50:07;;;;;;;16.82;11.60;;;;;;;-0.14;100.00;99752.41;1752316;82;21007;-65
2022/12/08 06:52:34;;;;;;;18.60;12.70;;;;;;;-0.09;100.00;99752.64;1752592;82;21541;-66
2022/12/08 06:55:01;;;;;;;17.92;11.18;;;;;;;0.00;100.00;99758.93;1752979;82;21074;-65
2022/12/08 06:57:29;;;;;;;18.85;12.07;;;;;;;0.03;100.00;99757.72;1752747;82;21062;-66
2022/12/08 06:59:56;;;;;;;20.23;12.63;;;;;;;-0.03;100.00;99758.51;1752654;82;21031;-65
2022/12/08 07:02:24;;;;;;;19.10;12.13;;;;;;;-0.01;100.00;99760.48;1752822;82;21026;-66
2022/12/08 07:04:51;;;;;;;20.50;12.33;;;;;;;0.11;100.00;99762.86;1752654;82;21055;-66
2022/12/08 07:07:18;;;;;;;20.88;12.37;;;;;;;0.22;100.00;99768.12;1752018;82;21537;-66
2022/12/08 07:09:46;;;;;;;18.62;12.23;;;;;;;0.27;100.00;99762.48;1743481;81;21051;-66
2022/12/08 07:12:13;;;;;;;18.17;12.37;;;;;;;0.27;100.00;99765.67;1737720;82;21130;-65
2022/12/08 07:14:40;;;;;;;16.70;11.88;;;;;;;0.32;100.00;99779.28;1738378;82;21043;-66
2022/12/08 07:17:08;;;;;;;17.25;12.30;;;;;;;0.36;100.00;99775.97;1737939;82;21094;-66
2022/12/08 07:19:34;;;;;;;19.80;12.82;;;;;;;0.36;100.00;99773.30;1738440;82;21499;-66
2022/12/08 07:22:01;;;;;;;18.27;12.00;;;;;;;0.41;100.00;99776.70;1739061;82;21028;-66
2022/12/08 07:24:29;;;;;;;14.45;10.40;;;;;;;0.41;100.00;99779.37;1739032;82;21433;-66
2022/12/08 07:26:56;;;;;;;15.72;11.12;;;;;;;0.43;100.00;99782.16;1739127;82;21047;-66
2022/12/08 07:29:23;;;;;;;17.15;10.90;;;;;;;0.45;100.00;99786.81;1738834;82;21094;-66
2022/12/08 07:31:49;;;;;;;18.30;11.93;;;;;;;0.52;100.00;99787.32;1739201;82;21040;-67
2022/12/08 07:34:16;;;;;;;18.37;11.63;;;;;;;0.53;100.00;99786.30;1739289;82;21031;-67
2022/12/08 07:36:44;;;;;;;18.48;12.63;;;;;;;0.53;100.00;99787.13;1739104;82;21610;-66
2022/12/08 07:39:11;;;;;;;15.13;10.63;;;;;;;0.55;100.00;99790.92;1739178;82;21574;-67
2022/12/08 07:41:38;;;;;;;20.15;13.50;;;;;;;0.62;100.00;99791.75;1739162;82;21000;-67
2022/12/08 07:44:05;;;;;;;17.32;12.33;;;;;;;0.63;100.00;99783.52;1739067;82;21091;-68
2022/12/08 07:46:33;;;;;;;19.70;13.08;;;;;;;0.65;100.00;99783.29;1738833;82;21051;-67
2022/12/08 07:49:00;;;;;;;20.60;13.68;;;;;;;0.65;100.00;99793.50;1739068;82;21012;-67
2022/12/08 07:51:28;;;;;;;17.98;12.25;;;;;;;0.70;100.00;99798.24;1739165;82;21098;-68
2022/12/08 07:53:55;;;;;;;19.32;12.50;;;;;;;0.76;100.00;99800.92;1738801;82;21075;-68
2022/12/08 07:56:23;;;;;;;23.27;12.33;;;;;;;0.79;100.00;99801.84;1739165;82;21560;-67
2022/12/08 07:58:50;;;;;;;19.20;13.78;;;;;;;0.74;100.00;99801.66;1738297;82;21016;-67
2022/12/08 08:01:26;;;;;;;48.75;24.27;;;;;;;0.72;100.00;99801.53;1737959;82;20979;-67
2022/12/08 08:03:54;;;;;;;49.03;23.07;;;;;;;0.74;100.00;99797.64;1737899;82;21035;-67
2022/12/08 08:06:21;;;;;;;32.88;19.30;;;;;;;0.68;100.00;99805.14;1739095;82;21000;-67
2022/12/08 08:08:50;;;;;;;31.45;18.15;;;;;;;0.57;100.00;99807.62;1740130;81;21023;-66
2022/12/08 08:11:17;;;;;;;38.85;22.82;;;;;;;0.48;100.00;99810.50;1753121;82;20984;-66
2022/12/08 08:13:44;;;;;;;20.37;13.83;;;;;;;0.46;100.00;99817.90;1753059;82;21522;-67
2022/12/08 08:16:12;;;;;;;22.13;15.45;;;;;;;0.52;100.00;99819.46;1753198;82;21465;-67
2022/12/08 08:18:39;;;;;;;26.17;15.18;;;;;;;0.52;100.00;99820.80;1752850;82;20976;-67
2022/12/08 08:21:06;;;;;;;16.62;12.28;;;;;;;0.54;100.00;99820.06;1753120;82;21640;-67
2022/12/08 08:23:34;;;;;;;18.42;11.90;;;;;;;0.51;100.00;99821.31;1752820;82;21573;-67
2022/12/08 08:26:03;;;;;;;21.33;13.03;;;;;;;0.46;100.00;99827.27;1752813;82;21596;-67
2022/12/08 08:28:30;;;;;;;24.37;14.25;;;;;;;0.40;100.00;99817.89;1752752;82;21035;-66
2022/12/08 08:30:57;;;;;;;21.17;12.60;;;;;;;0.29;100.00;99822.51;1753111;82;21018;-65
2022/12/08 08:33:26;;;;;;;22.93;14.90;;;;;;;0.21;100.00;99830.75;1752883;82;20991;-65
2022/12/08 08:35:53;;;;;;;20.50;14.53;;;;;;;0.22;100.00;99826.52;1752061;82;21066;-65
2022/12/08 08:38:22;;;;;;;23.45;15.63;;;;;;;0.28;100.00;99828.41;1751916;82;21098;-66
2022/12/08 08:40:49;;;;;;;25.72;15.25;;;;;;;0.30;100.00;99823.66;1751786;82;21126;-66
2022/12/08 08:43:28;;;;;;;19.27;13.68;;;;;;;0.31;100.00;99825.83;1752201;82;21054;-66
2022/12/08 08:46:00;;;;;;;18.35;12.80;;;;;;;0.37;100.00;99824.49;1751779;82;21557;-66
2022/12/08 08:48:27;;;;;;;19.95;13.08;;;;;;;0.49;100.00;99830.91;1752135;82;21097;-66
2022/12/08 08:50:55;;;;;;;24.05;14.47;;;;;;;0.51;100.00;99829.34;1752028;82;21039;-66
2022/12/08 08:53:21;;;;;;;20.82;12.78;;;;;;;0.46;100.00;99826.47;1752240;82;21047;-66
2022/12/08 08:55:49;;;;;;;18.02;12.43;;;;;;;0.40;100.00;99825.42;1752149;82;21090;-66
2022/12/08 14:28:05;;;;;;;58.63;26.48;;;;;;;-2.20;100.00;99829.68;1790673;79;23472;-68
2022/12/08 14:30:32;;;;;;;51.63;26.07;;;;;;;-2.15;100.00;99832.09;1751369;82;21541;-68
2022/12/08 14:33:02;;;;;;;48.15;26.33;;;;;;;-1.94;100.00;99836.62;1751128;82;21106;-69
2022/12/08 14:35:32;;;;;;;47.38;25.92;;;;;;;-1.74;100.00;99840.34;1752955;82;20990;-69
2022/12/08 14:38:01;;;;;;;46.30;24.80;;;;;;;-1.58;100.00;99843.26;1752601;82;21038;-69
2022/12/08 14:40:35;;;;;;;43.63;24.55;;;;;;;-1.45;100.00;99848.70;1753034;82;20948;-69
2022/12/08 14:43:15;;;;;;;35.05;20.00;;;;;;;-1.31;100.00;99837.66;1752730;81;21098;-69
2022/12/08 14:45:43;;;;;;;;;;;;;;;-1.19;100.00;99840.94;1754473;82;20987;-69
2022/12/08 14:48:36;;;;;;;30.90;18.27;;;;;;;-1.10;100.00;99843.77;1753048;81;20111;-69
2022/12/08 14:51:20;;;;;;;31.93;18.80;;;;;;;-1.11;100.00;99841.30;1753077;82;21026;-69
2022/12/08 14:54:08;;;;;;;31.10;18.45;;;;;;;-1.03;100.00;99836.62;1752837;82;21059;-69
2022/12/08 14:56:43;;;;;;;38.67;19.17;;;;;;;-0.99;100.00;99830.91;1751611;82;21070;-67
2022/12/08 14:59:18;;;;;;;30.25;18.60;;;;;;;-1.02;100.00;99842.80;1751370;82;21047;-69
2022/12/08 15:01:45;;;;;;;46.45;27.37;;;;;;;-1.01;100.00;99833.27;1752004;82;21102;-68
2022/12/08 15:04:18;;;;;;;37.95;19.70;;;;;;;-0.89;100.00;99838.07;1751375;82;21078;-69
2022/12/08 15:06:53;;;;;;;36.45;20.48;;;;;;;-0.86;100.00;99839.84;1751614;82;21353;-68
2022/12/08 15:09:38;;;;;;;36.38;20.15;;;;;;;-0.88;100.00;99842.38;1721544;82;21098;-68
2022/12/08 15:12:08;;;;;;;31.40;19.80;;;;;;;-0.82;100.00;99853.14;1751751;82;21069;-68
2022/12/08 15:14:39;;;;;;;35.03;20.35;;;;;;;-0.71;100.00;99843.74;1751694;82;21497;-69
2022/12/08 15:17:40;;;;;;;36.08;20.35;;;;;;;-0.71;100.00;99843.20;1751801;82;21155;-69
2022/12/08 15:20:29;;;;;;;32.55;18.48;;;;;;;-0.74;100.00;99842.77;1709110;83;21654;-68
2022/12/08 15:22:56;;;;;;;30.68;18.55;;;;;;;-0.79;100.00;99836.70;1750014;82;21090;-68
2022/12/08 15:25:23;;;;;;;27.70;17.62;;;;;;;-0.72;100.00;99832.73;1751618;82;21038;-68
2022/12/08 15:27:55;;;;;;;39.63;20.52;;;;;;;-0.72;100.00;99840.24;1740762;82;21040;-69
2022/12/08 15:30:25;;;;;;;33.23;18.12;;;;;;;-0.78;100.00;99830.31;1738066;82;21117;-68
2022/12/08 15:32:54;;;;;;;30.30;19.45;;;;;;;-0.86;100.00;99825.14;1737794;82;21652;-69
2022/12/08 15:35:21;;;;;;;29.12;19.30;;;;;;;-0.81;100.00;99833.38;1739632;82;20972;-69
2022/12/08 15:37:48;;;;;;;34.48;20.80;;;;;;;-0.73;100.00;99835.91;1739385;82;21028;-68
2022/12/08 15:40:21;;;;;;;36.73;20.88;;;;;;;-0.68;100.00;99840.17;1717977;82;21036;-69
2022/12/08 15:42:48;;;;;;;35.40;21.50;;;;;;;-0.69;100.00;99837.67;1739109;82;21527;-68
2022/12/08 15:45:16;;;;;;;31.93;20.48;;;;;;;-0.71;100.00;99841.87;1738745;82;20952;-68
2022/12/08 15:47:44;;;;;;;30.88;16.70;;;;;;;-0.63;100.00;99842.23;1739030;82;21051;-68
2022/12/08 15:50:16;;;;;;;28.00;16.37;;;;;;;-0.60;100.00;99849.34;1738860;82;21028;-69
2022/12/08 15:52:44;;;;;;;31.07;17.65;;;;;;;-0.63;100.00;99848.41;1739023;82;21894;-68
2022/12/08 15:55:15;;;;;;;25.52;15.83;;;;;;;-0.73;100.00;99855.95;1739168;82;20984;-69
2022/12/08 15:57:44;;;;;;;23.85;15.75;;;;;;;-0.73;100.00;99855.95;1738963;82;21016;-68
2022/12/08 16:00:25;;;;;;;27.37;15.55;;;;;;;-0.67;100.00;99856.50;1739152;82;21390;-68
2022/12/08 16:02:54;;;;;;;27.35;17.10;;;;;;;-0.66;100.00;99855.99;1737646;82;21535;-68
2022/12/08 16:05:22;;;;;;;26.35;16.50;;;;;;;-0.74;100.00;99857.48;1739122;82;20980;-69
2022/12/08 16:07:49;;;;;;;26.45;16.35;;;;;;;-0.75;100.00;99854.00;1738969;82;21871;-68
2022/12/08 16:10:20;;;;;;;27.62;16.17;;;;;;;-0.68;100.00;99850.86;1738881;82;21036;-68
2022/12/08 16:15:42;;;;;;;31.27;18.62;;;;;;;-0.60;100.00;99850.69;1739107;82;20976;-68
2022/12/08 16:18:15;;;;;;;30.55;17.55;;;;;;;-0.67;100.00;99851.16;1738734;82;21617;-68
2022/12/08 16:20:42;;;;;;;27.73;17.20;;;;;;;-0.65;100.00;99837.09;1739053;82;20984;-68
2022/12/08 16:23:09;;;;;;;27.20;16.85;;;;;;;-0.57;100.00;99842.80;1738413;82;21055;-68
2022/12/08 16:25:37;;;;;;;32.67;17.35;;;;;;;-0.56;100.00;99847.94;1717944;82;21491;-69
2022/12/08 16:28:04;;;;;;;30.12;18.92;;;;;;;-0.61;100.00;99849.56;1744246;81;21110;-71
2022/12/08 16:30:32;;;;;;;32.65;18.57;;;;;;;-0.66;100.00;99842.63;1747165;82;21501;-70
2022/12/08 16:32:59;;;;;;;33.00;17.27;;;;;;;-0.60;100.00;99844.50;1747086;82;21040;-70
2022/12/08 16:35:26;;;;;;;30.85;16.82;;;;;;;-0.57;100.00;99831.56;1746473;82;20991;-69
2022/12/08 16:37:53;;;;;;;32.03;15.60;;;;;;;-0.60;100.00;99837.31;1733449;82;21091;-68
2022/12/08 16:40:20;;;;;;;27.42;16.57;;;;;;;-0.66;100.00;99832.77;1668971;85;20987;-69
2022/12/08 16:42:48;;;;;;;27.55;16.32;;;;;;;-0.62;100.00;99834.53;1683061;84;21122;-69
2022/12/08 16:45:21;;;;;;;26.00;16.35;;;;;;;-0.57;100.00;99838.25;1681602;84;21102;-69
2022/12/08 16:47:54;;;;;;;32.63;17.67;;;;;;;-0.58;100.00;99835.28;1682758;84;21150;-69
2022/12/08 16:50:25;;;;;;;30.12;15.88;;;;;;;-0.65;100.00;99835.76;1685554;84;21058;-69
2022/12/08 16:53:05;;;;;;;23.67;15.25;;;;;;;-0.70;100.00;99828.00;1684565;84;21193;-69
2022/12/08 16:55:33;;;;;;;20.45;13.25;;;;;;;-0.69;100.00;99833.16;1705762;83;21171;-69
2022/12/08 16:58:01;;;;;;;25.72;15.05;;;;;;;-0.68;100.00;99832.15;1667648;85;21138;-69
2022/12/08 17:00:28;;;;;;;22.35;13.95;;;;;;;-0.74;100.00;99819.55;1653985;85;21110;-71
2022/12/08 17:02:57;;;;;;;20.05;11.93;;;;;;;-0.77;100.00;99821.28;1694425;84;21094;-69
2022/12/08 17:05:25;;;;;;;17.48;11.83;;;;;;;-0.70;100.00;99819.47;1730400;82;21003;-69
2022/12/08 17:07:52;;;;;;;18.73;11.30;;;;;;;-0.68;100.00;99816.61;1728605;81;21066;-70
2022/12/08 17:10:26;;;;;;;19.50;12.30;;;;;;;-0.72;100.00;99816.19;1731452;82;20987;-69
2022/12/08 17:12:53;;;;;;;21.20;12.85;;;;;;;-0.78;100.00;99816.15;1733279;82;21612;-67
2022/12/08 17:15:23;;;;;;;19.55;12.23;;;;;;;-0.76;100.00;99813.59;1707167;82;20956;-69
2022/12/08 17:17:50;;;;;;;17.82;11.40;;;;;;;-0.68;100.00;99805.92;1730621;82;21047;-69
2022/12/08 17:20:22;;;;;;;20.75;13.00;;;;;;;-0.66;100.00;99808.70;1733711;81;20964;-69
2022/12/08 17:22:54;;;;;;;19.90;12.78;;;;;;;-0.73;100.00;99805.67;1708661;82;21104;-70
2022/12/08 17:25:26;;;;;;;22.22;16.15;;;;;;;-0.73;100.00;99805.67;1678382;84;21103;-69
2022/12/08 17:27:55;;;;;;;20.25;12.60;;;;;;;-0.71;100.00;99800.97;1704410;84;21680;-70
2022/12/08 17:30:22;;;;;;;19.87;13.78;;;;;;;-0.74;100.00;99798.67;1668354;85;21321;-72
2022/12/08 17:32:51;;;;;;;22.25;14.53;;;;;;;-0.81;100.00;99802.64;1733324;82;21080;-71
